Search for airport 
image banner adimage banner adimage banner ad
image banner ad

L53 - Lodi Airpark

Located in Lodi, United States

ICAO - L53, IATA -

Data provided by Airmate  

General information

Coordinates: N38°5'3" W121°18'59"
Elevation is 25 feet MSL.
Magnetic variation is 16° East
View others Airports in California

Operational data

Special qualification required
Current time UTC:
Current local time:
Weather at : KSCK - Stockton Metropolitan ( 22 km )
METAR: KSCK 191155Z AUTO 00000KT 10SM CLR 04/03 A3001 RMK AO2 SLP163 T00440033 10089 20039 58005 $
TAF: KSCK 191134Z 1912/2012 VRB05KT P6SM SKC FM192100 15008KT P6SM SCT200 FM200900 13011KT P6SM -RA OVC060
View NOTAMs / SUP AIP / TFR affecting this airport [VIEW]
Communications frequencies: [VIEW]

Runways:

RWY identifierQFULength (ft)Width (ft)SurfaceLDA (ft)
07187522ASPH
25187522ASPH

Airport contact information

Address: Lodi United States

Satellite view of L53